createdAt,value
2023-11-06T00:00:40.668Z,96613.29
2023-11-06T00:03:07.661Z,96618.11
2023-11-06T00:05:36.939Z,96622.88
2023-11-06T00:08:04.289Z,96625.73
2023-11-06T00:10:39.047Z,96623.95
2023-11-06T00:13:05.972Z,96628.38
2023-11-06T00:15:33.395Z,96635.14
2023-11-06T00:18:00.459Z,96634.50
2023-11-06T00:20:27.402Z,96632.90
2023-11-06T00:22:54.886Z,96633.32
2023-11-06T00:25:23.969Z,96630.93
2023-11-06T00:27:51.796Z,96631.45
2023-11-06T00:30:18.951Z,96634.01
2023-11-06T00:32:45.829Z,96637.21
2023-11-06T00:35:14.034Z,96639.55
2023-11-06T00:37:42.085Z,96641.58
2023-11-06T00:40:09.742Z,96640.23
2023-11-06T00:42:37.723Z,96644.02
2023-11-06T00:45:05.452Z,96645.06
2023-11-06T00:47:32.801Z,96644.39
2023-11-06T00:50:00.627Z,96645.91
2023-11-06T00:52:27.623Z,96649.77
2023-11-06T00:54:54.478Z,96653.52
2023-11-06T00:57:21.608Z,96660.35
2023-11-06T00:59:48.443Z,96671.15
2023-11-06T01:02:15.362Z,96671.83
2023-11-06T01:04:42.484Z,96676.92
2023-11-06T01:07:09.722Z,96675.41
2023-11-06T01:09:37.172Z,96681.63
2023-11-06T01:12:04.646Z,96685.39
2023-11-06T01:14:34.132Z,96689.61
2023-11-06T01:17:01.058Z,96688.02
2023-11-06T01:19:27.983Z,96693.05
2023-11-06T01:21:55.187Z,96698.40
2023-11-06T01:24:22.048Z,96704.90
2023-11-06T01:26:49.461Z,96706.48
2023-11-06T01:29:16.321Z,96708.96
2023-11-06T01:31:43.307Z,96713.27
2023-11-06T01:34:10.964Z,96714.69
2023-11-06T01:36:45.401Z,96725.30
2023-11-06T01:39:12.782Z,96726.75
2023-11-06T01:41:40.254Z,96734.17
2023-11-06T01:44:08.516Z,96738.41
2023-11-06T01:46:36.659Z,96743.43
2023-11-06T01:49:03.608Z,96745.78
2023-11-06T01:51:30.650Z,96743.30
2023-11-06T01:53:57.845Z,96737.11
2023-11-06T01:56:24.917Z,96737.52
2023-11-06T01:58:51.814Z,96740.23
2023-11-06T02:01:18.637Z,96755.91
2023-11-06T02:03:45.898Z,96761.52
2023-11-06T02:06:13.077Z,96761.67
2023-11-06T02:08:39.920Z,96764.89
2023-11-06T02:11:09.862Z,96760.30
2023-11-06T02:13:36.684Z,96766.36
2023-11-06T02:16:03.692Z,96766.51
2023-11-06T02:18:31.444Z,96772.40
2023-11-06T02:21:00.579Z,96772.81
2023-11-06T02:23:28.988Z,96773.45
2023-11-06T02:25:56.069Z,96767.66
2023-11-06T02:28:22.923Z,96771.61
2023-11-06T02:30:53.836Z,96781.39
2023-11-06T02:33:21.062Z,96788.38
2023-11-06T02:35:48.949Z,96796.28
2023-11-06T02:38:15.979Z,96805.45
2023-11-06T02:40:43.418Z,96807.54
2023-11-06T02:43:10.337Z,96807.77
2023-11-06T02:45:37.813Z,96817.54
2023-11-06T02:48:04.919Z,96821.29
2023-11-06T02:50:32.439Z,96822.98
2023-11-06T02:53:00.612Z,96825.64
2023-11-06T02:55:27.722Z,96836.73
2023-11-06T02:57:54.618Z,96839.30
2023-11-06T03:00:22.311Z,96843.40
2023-11-06T03:02:49.848Z,96851.75
2023-11-06T03:05:18.298Z,96857.11
2023-11-06T03:07:48.475Z,96862.50
2023-11-06T03:10:15.904Z,96864.77
2023-11-06T03:12:42.800Z,96870.84
2023-11-06T03:15:11.891Z,96873.08
2023-11-06T03:17:39.320Z,96875.23
2023-11-06T03:20:11.784Z,96877.44
2023-11-06T03:22:39.142Z,96881.39
2023-11-06T03:25:06.915Z,96886.70
2023-11-06T03:27:34.362Z,96891.11
2023-11-06T03:30:01.205Z,96894.06
2023-11-06T03:32:28.141Z,96897.67
2023-11-06T03:34:57.219Z,96900.80
2023-11-06T03:37:24.920Z,96906.71
2023-11-06T03:39:51.886Z,96907.05
2023-11-06T03:42:18.829Z,96906.29
2023-11-06T03:44:45.739Z,96907.58
2023-11-06T03:47:12.566Z,96912.54
2023-11-06T03:49:40.640Z,96915.31
2023-11-06T03:52:12.230Z,96919.11
2023-11-06T03:54:39.766Z,96918.79
2023-11-06T03:57:07.208Z,96917.27
2023-11-06T03:59:34.071Z,96924.02
2023-11-06T04:02:00.965Z,96929.30
2023-11-06T04:04:27.847Z,96934.13
2023-11-06T04:06:54.848Z,96936.75
2023-11-06T04:09:21.680Z,96939.77
2023-11-06T04:11:48.493Z,96941.92
2023-11-06T04:14:15.381Z,96940.88
2023-11-06T04:16:43.389Z,96944.63
2023-11-06T04:19:11.703Z,96947.95
2023-11-06T04:21:39.184Z,96952.35
2023-11-06T04:24:07.062Z,96956.91
2023-11-06T04:26:33.865Z,96964.50
2023-11-06T04:29:00.673Z,96969.68
2023-11-06T04:31:27.704Z,96969.00
2023-11-06T04:33:56.120Z,96972.84
2023-11-06T04:36:23.205Z,96976.64
2023-11-06T04:38:56.070Z,96976.23
2023-11-06T04:41:22.917Z,96977.60
2023-11-06T04:43:49.751Z,96980.33
2023-11-06T04:46:16.661Z,96983.22
2023-11-06T04:48:43.542Z,96985.73
2023-11-06T04:51:10.425Z,96989.34
2023-11-06T04:53:40.504Z,96992.68
2023-11-06T04:56:07.739Z,96996.79
2023-11-06T04:58:34.625Z,96998.80
2023-11-06T05:01:02.569Z,97002.39
2023-11-06T05:03:34.181Z,97009.18
2023-11-06T05:06:01.311Z,97014.05
2023-11-06T05:08:30.240Z,97018.39
2023-11-06T05:10:57.388Z,97023.05
2023-11-06T05:13:24.414Z,97028.66
2023-11-06T05:15:54.047Z,97035.39
2023-11-06T05:18:23.257Z,97038.64
2023-11-06T05:20:50.218Z,97037.05
2023-11-06T05:23:17.074Z,97041.16
2023-11-06T05:25:43.913Z,97048.00
2023-11-06T05:28:10.832Z,97052.50
2023-11-06T05:30:37.668Z,97060.09
2023-11-06T05:33:04.597Z,97069.69
2023-11-06T05:35:31.624Z,97077.50
2023-11-06T05:37:58.805Z,97084.89
2023-11-06T05:40:25.718Z,97093.04
2023-11-06T05:42:55.299Z,97096.06
2023-11-06T05:45:22.281Z,97105.36
2023-11-06T05:47:49.310Z,97107.82
2023-11-06T05:50:16.634Z,97111.84
2023-11-06T05:52:47.470Z,97118.59
2023-11-06T05:55:14.858Z,97118.14
2023-11-06T05:57:44.391Z,97128.21
2023-11-06T06:00:13.025Z,97134.91
2023-11-06T06:02:40.118Z,97139.63
2023-11-06T06:05:08.257Z,97145.45
2023-11-06T06:07:38.693Z,97149.31
2023-11-06T06:10:06.462Z,97156.83
2023-11-06T06:12:34.638Z,97157.20
2023-11-06T06:15:02.618Z,97159.32
2023-11-06T06:17:32.684Z,97158.42
2023-11-06T06:19:59.524Z,97167.15
2023-11-06T06:22:27.340Z,97173.66
2023-11-06T06:24:54.185Z,97173.89
2023-11-06T06:27:21.082Z,97176.23
2023-11-06T06:29:48.420Z,97183.11
2023-11-06T06:32:16.086Z,97189.38
2023-11-06T06:34:43.246Z,97191.64
2023-11-06T06:37:10.308Z,97197.30
2023-11-06T06:39:37.249Z,97201.63
2023-11-06T06:42:04.436Z,97203.11
2023-11-06T06:44:31.377Z,97209.50
2023-11-06T06:46:59.975Z,97214.98
2023-11-06T06:49:29.882Z,97222.54
2023-11-06T06:51:56.920Z,97235.88
2023-11-06T06:54:24.013Z,97242.46
2023-11-06T06:56:51.415Z,97243.64
2023-11-06T06:59:18.248Z,97249.57
2023-11-06T07:01:45.947Z,97250.83
2023-11-06T07:04:12.955Z,97255.73
2023-11-06T07:06:40.194Z,97260.39
2023-11-06T07:09:08.701Z,97267.00
2023-11-06T07:11:35.889Z,97270.83
2023-11-06T07:14:02.822Z,97272.52
2023-11-06T07:16:30.010Z,97276.94
2023-11-06T07:18:56.836Z,97277.57
2023-11-06T07:21:24.655Z,97276.77
2023-11-06T07:23:51.765Z,97275.92
2023-11-06T07:26:18.720Z,97278.26
2023-11-06T07:28:45.754Z,97281.85
2023-11-06T07:31:12.917Z,97284.11
2023-11-06T07:33:40.417Z,97290.09
2023-11-06T07:36:10.319Z,97292.39
2023-11-06T07:38:37.830Z,97299.83
2023-11-06T07:41:05.142Z,97305.70
2023-11-06T07:43:31.964Z,97310.40
2023-11-06T07:45:58.843Z,97311.19
2023-11-06T07:48:25.869Z,97318.86
2023-11-06T07:50:55.428Z,97324.95
2023-11-06T07:53:22.391Z,97326.75
2023-11-06T07:55:49.389Z,97324.61
2023-11-06T07:58:16.213Z,97323.67
2023-11-06T08:00:49.464Z,97322.80
2023-11-06T08:03:17.950Z,97328.55
2023-11-06T08:05:45.129Z,97330.72
2023-11-06T08:08:12.237Z,97334.30
2023-11-06T08:10:39.312Z,97334.14
2023-11-06T08:13:06.146Z,97343.08
2023-11-06T08:15:32.927Z,97343.02
2023-11-06T08:17:59.989Z,97346.46
2023-11-06T08:20:27.585Z,97351.14
2023-11-06T08:22:54.667Z,97358.06
2023-11-06T08:25:25.483Z,97365.89
2023-11-06T08:27:54.009Z,97364.06
2023-11-06T08:30:20.868Z,97372.56
2023-11-06T08:32:47.984Z,97378.98
2023-11-06T08:35:15.151Z,97376.35
2023-11-06T08:37:42.230Z,97382.90
2023-11-06T08:40:09.315Z,97384.48
2023-11-06T08:42:38.342Z,97388.66
2023-11-06T08:45:05.655Z,97387.50
2023-11-06T08:47:32.810Z,97391.16
2023-11-06T08:49:59.769Z,97391.23
2023-11-06T08:52:26.738Z,97392.87
2023-11-06T08:54:53.659Z,97397.69
2023-11-06T08:57:20.516Z,97398.36
2023-11-06T08:59:48.698Z,97399.92
2023-11-06T09:02:15.754Z,97399.22
2023-11-06T09:04:42.613Z,97401.31
2023-11-06T09:07:09.549Z,97399.34
2023-11-06T09:09:36.937Z,97401.40
2023-11-06T09:12:04.104Z,97397.56
2023-11-06T09:14:31.107Z,97406.62
2023-11-06T09:16:58.036Z,97407.15
2023-11-06T09:19:25.236Z,97404.55
2023-11-06T09:21:52.352Z,97407.23
2023-11-06T09:24:19.381Z,97410.61
2023-11-06T09:26:46.911Z,97408.80
2023-11-06T09:29:13.816Z,97410.70
2023-11-06T09:31:41.747Z,97417.39
2023-11-06T09:34:09.169Z,97412.66
2023-11-06T09:36:36.063Z,97419.20
2023-11-06T09:39:03.272Z,97427.05
2023-11-06T09:41:30.443Z,97428.59
2023-11-06T09:43:57.817Z,97432.33
2023-11-06T09:46:24.826Z,97445.33
2023-11-06T09:48:54.005Z,97446.23
2023-11-06T09:51:20.979Z,97442.95
2023-11-06T09:53:48.269Z,97450.49
2023-11-06T09:56:16.379Z,97447.31
2023-11-06T09:58:43.661Z,97457.55
2023-11-06T10:01:10.581Z,97456.85
2023-11-06T10:03:38.296Z,97460.73
2023-11-06T10:06:06.231Z,97463.38
2023-11-06T10:08:39.816Z,97462.36
2023-11-06T10:11:08.292Z,97458.23
2023-11-06T10:13:50.947Z,97455.96
2023-11-06T10:16:24.576Z,97458.38
2023-11-06T10:18:52.490Z,97461.44
2023-11-06T10:21:29.896Z,97466.73
2023-11-06T10:24:01.664Z,97473.94
2023-11-06T10:26:32.800Z,97478.48
2023-11-06T10:29:13.554Z,97482.40
2023-11-06T10:31:45.317Z,97487.67
2023-11-06T10:34:32.691Z,97487.95
2023-11-06T10:37:15.036Z,97483.20
2023-11-06T10:39:42.691Z,97480.91
2023-11-06T10:42:13.029Z,97488.87
2023-11-06T10:44:40.054Z,97488.30
2023-11-06T10:47:08.585Z,97491.14
2023-11-06T10:49:37.247Z,97494.88
2023-11-06T10:52:05.708Z,97506.77
2023-11-06T10:54:33.396Z,97511.42
2023-11-06T10:57:01.077Z,97520.08
2023-11-06T10:59:31.257Z,97520.25
2023-11-06T11:01:58.855Z,97526.16
2023-11-06T11:04:26.512Z,97525.14
2023-11-06T11:06:53.719Z,97530.73
2023-11-06T11:09:21.012Z,97536.27
2023-11-06T11:11:47.977Z,97546.80
2023-11-06T11:14:15.017Z,97543.77
2023-11-06T11:16:51.980Z,97542.65
2023-11-06T11:19:28.954Z,97536.83
2023-11-06T11:22:05.018Z,97535.77
2023-11-06T11:24:47.270Z,97535.61
2023-11-06T11:27:19.014Z,97536.11
2023-11-06T11:29:55.462Z,97542.79
2023-11-06T11:32:32.113Z,97537.12
2023-11-06T11:35:21.459Z,97535.45
2023-11-06T11:37:54.854Z,97539.66
2023-11-06T11:40:21.795Z,97537.30
2023-11-06T11:42:48.730Z,97545.46
2023-11-06T11:45:31.518Z,97546.56
2023-11-06T11:47:58.762Z,97549.21
2023-11-06T11:50:28.864Z,97549.35
2023-11-06T11:52:56.278Z,97547.20
2023-11-06T11:55:39.104Z,97554.31
2023-11-06T11:58:07.208Z,97554.92
2023-11-06T12:00:35.509Z,97554.19
2023-11-06T12:03:10.217Z,97556.41
2023-11-06T12:05:38.815Z,97559.46
2023-11-06T12:08:14.787Z,97561.67
2023-11-06T12:10:46.567Z,97555.70
2023-11-06T12:13:20.471Z,97557.92
2023-11-06T12:15:48.323Z,97563.02
2023-11-06T12:18:17.764Z,97565.65
2023-11-06T12:21:01.511Z,97567.48
2023-11-06T12:23:33.219Z,97561.04
2023-11-06T12:26:15.485Z,97565.48
2023-11-06T12:28:48.797Z,97577.66
2023-11-06T12:31:16.982Z,97571.92
2023-11-06T12:33:46.292Z,97576.70
2023-11-06T12:36:31.161Z,97578.72
2023-11-06T12:39:00.378Z,97581.22
2023-11-06T12:41:31.281Z,97583.52
2023-11-06T12:44:01.740Z,97583.85
2023-11-06T12:47:03.469Z,97590.38
2023-11-06T12:49:50.774Z,97593.18
2023-11-06T12:52:22.305Z,97597.81
2023-11-06T12:54:49.871Z,97607.78
2023-11-06T12:57:17.879Z,97608.17
2023-11-06T12:59:44.879Z,97616.94
2023-11-06T13:02:12.874Z,97629.66
2023-11-06T13:04:40.500Z,97624.02
2023-11-06T13:07:12.189Z,97626.59
2023-11-06T13:09:39.177Z,97629.95
2023-11-06T13:12:06.565Z,97631.36
2023-11-06T13:14:35.910Z,97631.38
2023-11-06T13:17:08.446Z,97635.09
2023-11-06T13:19:35.906Z,97642.29
2023-11-06T13:22:03.852Z,97649.26
2023-11-06T13:24:30.932Z,97656.09
2023-11-06T13:26:58.182Z,97658.53
2023-11-06T13:29:28.432Z,97667.59
2023-11-06T13:31:55.335Z,97673.80
2023-11-06T13:34:23.522Z,97686.75
2023-11-06T13:36:52.679Z,97692.10
2023-11-06T13:39:25.517Z,97696.95
2023-11-06T13:41:55.924Z,97703.02
2023-11-06T13:44:24.570Z,97704.77
2023-11-06T13:46:53.226Z,97698.77
2023-11-06T13:49:20.932Z,97705.10
2023-11-06T13:51:49.245Z,97705.55
2023-11-06T13:54:25.558Z,97708.09
2023-11-06T13:56:53.787Z,97714.98
2023-11-06T13:59:29.463Z,97715.73
2023-11-06T14:02:02.519Z,97717.72
2023-11-06T14:04:31.661Z,97722.80
2023-11-06T14:06:59.078Z,97734.60
2023-11-06T14:09:35.280Z,97739.86
2023-11-06T14:12:02.338Z,97742.65
2023-11-06T14:14:29.416Z,97751.36
2023-11-06T14:17:01.525Z,97748.86
2023-11-06T14:19:30.539Z,97750.85
2023-11-06T14:21:57.491Z,97752.98
2023-11-06T14:24:26.793Z,97761.30
2023-11-06T14:26:53.751Z,97762.84
2023-11-06T14:29:22.391Z,97771.49
2023-11-06T14:31:51.000Z,97769.50
2023-11-06T14:34:18.070Z,97770.37
2023-11-06T14:36:46.405Z,97770.30
2023-11-06T14:39:16.761Z,97778.15
2023-11-06T14:41:44.384Z,97784.27
2023-11-06T14:44:15.013Z,97790.00
2023-11-06T14:46:42.164Z,97796.41
2023-11-06T14:49:10.182Z,97798.70
2023-11-06T14:51:37.403Z,97803.75
2023-11-06T14:54:04.714Z,97804.33
2023-11-06T14:56:32.136Z,97807.34
2023-11-06T14:58:59.323Z,97811.75
2023-11-06T15:01:28.302Z,97819.81
2023-11-06T15:03:55.254Z,97826.28
2023-11-06T15:06:22.217Z,97831.83
2023-11-06T15:08:50.193Z,97834.90
2023-11-06T15:11:20.376Z,97842.53
2023-11-06T15:13:47.775Z,97848.44
2023-11-06T15:16:14.981Z,97851.33
2023-11-06T15:18:43.929Z,97848.71
2023-11-06T15:21:13.127Z,97857.09
2023-11-06T15:23:40.272Z,97858.48
2023-11-06T15:26:07.247Z,97860.98
2023-11-06T15:28:34.740Z,97864.56
2023-11-06T15:31:03.884Z,97866.00
2023-11-06T15:33:31.222Z,97865.63
2023-11-06T15:36:00.688Z,97866.02
2023-11-06T15:38:29.558Z,97872.03
2023-11-06T15:40:59.569Z,97876.80
2023-11-06T15:43:27.559Z,97880.98
2023-11-06T15:45:54.509Z,97885.04
2023-11-06T15:48:21.475Z,97885.73
2023-11-06T15:50:49.648Z,97889.75
2023-11-06T15:53:16.946Z,97890.26
2023-11-06T15:55:46.304Z,97897.56
2023-11-06T15:58:13.935Z,97899.65
2023-11-06T16:00:42.302Z,97903.34
2023-11-06T16:03:09.452Z,97909.80
2023-11-06T16:05:37.210Z,97915.03
2023-11-06T16:08:04.667Z,97920.83
2023-11-06T16:10:33.842Z,97923.65
2023-11-06T16:13:04.595Z,97923.46
2023-11-06T16:15:31.850Z,97926.21
2023-11-06T16:17:59.131Z,97932.32
2023-11-06T16:20:28.521Z,97937.31
2023-11-06T16:23:02.325Z,97938.39
2023-11-06T16:25:29.528Z,97942.71
2023-11-06T16:27:58.035Z,97950.33
2023-11-06T16:30:28.125Z,97956.67
2023-11-06T16:32:57.429Z,97960.20
2023-11-06T16:35:27.073Z,97965.75
2023-11-06T16:37:54.930Z,97967.35
2023-11-06T16:40:21.995Z,97969.73
2023-11-06T16:42:51.229Z,97969.77
2023-11-06T16:45:18.560Z,97972.39
2023-11-06T16:47:45.585Z,97976.89
2023-11-06T16:50:17.912Z,97979.64
2023-11-06T16:52:44.882Z,97981.63
2023-11-06T16:55:12.013Z,97983.79
2023-11-06T16:57:40.976Z,97982.23
2023-11-06T17:00:08.726Z,97987.53
2023-11-06T17:02:36.431Z,97987.19
2023-11-06T17:05:06.490Z,97988.23
2023-11-06T17:07:33.584Z,97990.41
2023-11-06T17:10:00.539Z,97987.73
2023-11-06T17:12:28.321Z,97995.34
2023-11-06T17:14:55.239Z,97997.15
2023-11-06T17:17:22.291Z,97999.57
2023-11-06T17:19:50.535Z,98006.28
2023-11-06T17:22:17.471Z,98006.37
2023-11-06T17:24:45.144Z,98017.23
2023-11-06T17:27:13.706Z,98019.48
2023-11-06T17:29:41.340Z,98020.22
2023-11-06T17:32:08.295Z,98021.04
2023-11-06T17:34:35.402Z,98028.81
2023-11-06T17:37:02.364Z,98032.50
2023-11-06T17:39:29.484Z,98038.78
2023-11-06T17:41:59.478Z,98041.50
2023-11-06T17:44:26.392Z,98038.95
2023-11-06T17:46:53.525Z,98042.46
2023-11-06T17:49:20.715Z,98044.50
2023-11-06T17:51:48.322Z,98047.98
2023-11-06T17:54:17.978Z,98046.81
2023-11-06T17:56:45.065Z,98049.39
2023-11-06T17:59:12.666Z,98054.55
2023-11-06T18:01:39.906Z,98060.00
2023-11-06T18:04:08.162Z,98061.33
2023-11-06T18:06:35.867Z,98065.64
2023-11-06T18:09:03.142Z,98072.65
2023-11-06T18:11:31.425Z,98073.60
2023-11-06T18:13:58.502Z,98079.39
2023-11-06T18:16:25.488Z,98085.38
2023-11-06T18:18:53.027Z,98084.41
2023-11-06T18:21:20.038Z,98089.55
2023-11-06T18:23:47.067Z,98094.96
2023-11-06T18:26:18.758Z,98095.16
2023-11-06T18:28:47.091Z,98095.91
2023-11-06T18:31:14.191Z,98100.68
2023-11-06T18:33:41.346Z,98100.04
2023-11-06T18:36:08.764Z,98095.21
2023-11-06T18:41:00.997Z,98096.42
2023-11-06T18:43:28.042Z,98102.35
2023-11-06T18:45:54.951Z,98104.90
2023-11-06T18:48:21.937Z,98106.13
2023-11-06T18:50:49.211Z,98103.11
2023-11-06T18:53:16.161Z,98103.53
2023-11-06T18:55:43.089Z,98107.30
2023-11-06T18:58:10.318Z,98111.53
2023-11-06T19:00:38.751Z,98114.66
2023-11-06T19:03:06.590Z,98114.21
2023-11-06T19:05:34.580Z,98115.68
2023-11-06T19:08:01.812Z,98117.74
2023-11-06T19:10:31.402Z,98118.66
2023-11-06T19:12:58.345Z,98122.99
2023-11-06T19:15:25.545Z,98125.14
2023-11-06T19:17:52.714Z,98129.63
2023-11-06T19:20:20.630Z,98131.86
2023-11-06T19:22:47.868Z,98135.27
2023-11-06T19:25:14.807Z,98139.90
2023-11-06T19:27:44.134Z,98135.67
2023-11-06T19:30:17.291Z,98138.21
2023-11-06T19:32:45.209Z,98141.04
2023-11-06T19:35:13.475Z,98147.83
2023-11-06T19:37:41.353Z,98149.89
2023-11-06T19:40:09.550Z,98155.49
2023-11-06T19:42:36.580Z,98162.11
2023-11-06T19:45:03.925Z,98164.27
2023-11-06T19:47:31.561Z,98162.55
2023-11-06T19:49:58.738Z,98166.52
2023-11-06T19:52:25.614Z,98169.16
2023-11-06T19:54:52.570Z,98173.80
2023-11-06T19:57:19.815Z,98168.41
2023-11-06T19:59:57.935Z,98172.23
2023-11-06T20:02:35.964Z,98167.86
2023-11-06T20:05:03.838Z,98179.38
2023-11-06T20:07:31.113Z,98180.63
2023-11-06T20:09:57.977Z,98178.00
2023-11-06T20:12:25.024Z,98179.84
2023-11-06T20:14:53.116Z,98178.50
2023-11-06T20:17:21.237Z,98183.18
2023-11-06T20:19:48.217Z,98188.48
2023-11-06T20:22:15.493Z,98182.19
2023-11-06T20:24:44.459Z,98189.70
2023-11-06T20:27:11.405Z,98187.02
2023-11-06T20:29:38.284Z,98190.13
2023-11-06T20:32:06.109Z,98192.10
2023-11-06T20:34:32.998Z,98196.79
2023-11-06T20:36:59.898Z,98197.48
2023-11-06T20:39:26.759Z,98201.02
2023-11-06T20:41:53.629Z,98205.79
2023-11-06T20:44:20.860Z,98203.66
2023-11-06T20:46:48.162Z,98208.30
2023-11-06T20:49:15.735Z,98220.10
2023-11-06T20:51:43.236Z,98218.52
2023-11-06T20:54:10.449Z,98218.55
2023-11-06T20:56:39.825Z,98223.10
2023-11-06T20:59:07.458Z,98224.99
2023-11-06T21:01:35.305Z,98233.52
2023-11-06T21:04:02.536Z,98230.89
2023-11-06T21:06:29.697Z,98232.40
2023-11-06T21:08:56.697Z,98243.06
2023-11-06T21:11:26.077Z,98244.20
2023-11-06T21:13:52.925Z,98243.76
2023-11-06T21:16:19.824Z,98243.83
2023-11-06T21:18:46.924Z,98244.48
2023-11-06T21:21:14.921Z,98251.06
2023-11-06T21:23:41.846Z,98248.19
2023-11-06T21:26:08.757Z,98253.19
2023-11-06T21:28:35.863Z,98252.78
2023-11-06T21:31:03.056Z,98254.55
2023-11-06T21:33:30.609Z,98258.69
2023-11-06T21:36:00.054Z,98265.33
2023-11-06T21:38:28.155Z,98268.80
2023-11-06T21:40:55.270Z,98277.23
2023-11-06T21:43:23.727Z,98281.90
2023-11-06T21:45:50.571Z,98282.86
2023-11-06T21:48:18.410Z,98281.69
2023-11-06T21:50:45.441Z,98291.18
2023-11-06T21:53:12.368Z,98295.54
2023-11-06T21:55:39.402Z,98299.20
2023-11-06T21:58:06.213Z,98301.86
2023-11-06T22:00:33.216Z,98299.02
2023-11-06T22:03:00.509Z,98305.11
2023-11-06T22:05:31.338Z,98311.19
2023-11-06T22:07:58.380Z,98316.15
2023-11-06T22:10:26.126Z,98313.91
2023-11-06T22:12:53.261Z,98318.52
2023-11-06T22:15:21.250Z,98314.86
2023-11-06T22:17:48.568Z,98319.84
2023-11-06T22:20:15.830Z,98322.52
2023-11-06T22:22:42.972Z,98324.64
2023-11-06T22:25:10.752Z,98327.07
2023-11-06T22:27:38.336Z,98328.23
2023-11-06T22:30:06.757Z,98332.23
2023-11-06T22:32:34.219Z,98336.12
2023-11-06T22:35:04.236Z,98335.56
2023-11-06T22:37:31.400Z,98334.24
2023-11-06T22:39:58.923Z,98335.38
2023-11-06T22:42:26.880Z,98339.02
2023-11-06T22:44:53.756Z,98344.16
2023-11-06T22:47:21.461Z,98345.23
2023-11-06T22:49:48.348Z,98347.85
2023-11-06T22:52:15.353Z,98350.13
2023-11-06T22:54:42.994Z,98352.60
2023-11-06T22:57:10.374Z,98357.36
2023-11-06T22:59:37.246Z,98356.04
2023-11-06T23:02:05.164Z,98358.14
2023-11-06T23:04:33.501Z,98359.45
2023-11-06T23:07:00.600Z,98360.80
2023-11-06T23:09:29.557Z,98360.83
2023-11-06T23:11:56.964Z,98361.60
2023-11-06T23:14:24.107Z,98365.90
2023-11-06T23:16:53.174Z,98369.22
2023-11-06T23:19:20.166Z,98373.23
2023-11-06T23:21:47.130Z,98373.90
2023-11-06T23:24:14.036Z,98378.34
2023-11-06T23:26:46.566Z,98378.80
2023-11-06T23:29:16.174Z,98389.56
2023-11-06T23:31:43.122Z,98392.33
2023-11-06T23:34:10.556Z,98392.45
2023-11-06T23:36:38.195Z,98395.88
2023-11-06T23:39:05.558Z,98398.40
2023-11-06T23:41:40.494Z,98399.73
2023-11-06T23:44:12.422Z,98410.03
2023-11-06T23:46:40.176Z,98412.20
2023-11-06T23:49:09.594Z,98414.63
2023-11-06T23:51:36.995Z,98416.31
2023-11-06T23:54:05.607Z,98417.27
2023-11-06T23:56:32.872Z,98421.80
2023-11-06T23:58:59.965Z,98424.88
